Time;durP1;ratioP1;P1;durP2;ratioP2;P2;SDS_P1;SDS_P2;PMS_P1;PMS_P2;Temp;Humidity;BMP_temperature;BMP_pressure;BME280_temperature;BME280_humidity;BME280_pressure;Samples;Min_cycle;Max_cycle;Signal;HPM_P1;HPM_P2
2023/10/09 00:04:02;;;;;;;9.27;2.17;;;;;;;12.93;100.00;101896.56;10395151;28;20037;-74
2023/10/09 00:09:30;;;;;;;5.97;1.67;;;;;;;12.92;100.00;101872.78;10393561;28;20042;-72
2023/10/09 00:14:33;;;;;;;6.03;1.80;;;;;;;12.90;100.00;101863.88;10382467;28;20474;-73
2023/10/09 00:19:34;;;;;;;6.93;2.55;;;;;;;12.74;100.00;101862.72;10383580;28;20042;-74
2023/10/09 00:24:35;;;;;;;4.68;2.25;;;;;;;12.79;100.00;101871.09;10386745;28;20041;-74
2023/10/09 00:29:42;;;;;;;7.93;2.20;;;;;;;12.77;100.00;101861.41;10390950;28;20045;-73
2023/10/09 00:34:42;;;;;;;8.27;2.10;;;;;;;12.76;100.00;101843.16;10396097;28;20116;-73
2023/10/09 00:39:43;;;;;;;4.78;2.60;;;;;;;12.65;100.00;101815.31;10391984;28;20049;-73
2023/10/09 00:44:48;;;;;;;6.18;2.17;;;;;;;12.76;100.00;101815.53;10400058;28;20115;-73
2023/10/09 00:50:00;;;;;;;10.82;3.25;;;;;;;12.75;100.00;101828.47;10391978;28;20038;-73
2023/10/09 00:55:04;;;;;;;6.80;3.03;;;;;;;12.63;100.00;101794.53;10401071;28;20044;-73
2023/10/09 01:00:12;;;;;;;5.70;2.60;;;;;;;12.71;100.00;101808.81;10381188;28;20065;-73
2023/10/09 01:05:19;;;;;;;7.82;3.08;;;;;;;12.76;100.00;101787.88;10403370;28;20041;-74
2023/10/09 01:10:20;;;;;;;8.90;3.38;;;;;;;12.76;100.00;101794.25;10398006;28;20493;-73
2023/10/09 01:15:37;;;;;;;10.55;3.55;;;;;;;12.78;100.00;101785.72;10393511;28;20104;-73
2023/10/09 01:20:41;;;;;;;10.77;5.78;;;;;;;12.80;100.00;101769.72;10369173;28;20505;-73
2023/10/09 01:25:45;;;;;;;11.88;4.35;;;;;;;12.82;100.00;101771.16;10387941;28;20065;-73
2023/10/09 01:30:47;;;;;;;14.30;4.30;;;;;;;12.87;100.00;101762.09;10388800;28;20053;-73
2023/10/09 01:35:48;;;;;;;13.55;4.68;;;;;;;12.89;100.00;101766.28;10388410;28;20068;-74
2023/10/09 01:40:51;;;;;;;12.38;4.60;;;;;;;12.94;100.00;101760.03;10403219;28;20049;-73
2023/10/09 01:45:52;;;;;;;12.50;5.10;;;;;;;12.97;100.00;101756.78;10396213;28;20057;-73
2023/10/09 01:50:53;;;;;;;11.20;4.72;;;;;;;13.00;100.00;101745.22;10381852;28;20505;-73
2023/10/09 01:55:55;;;;;;;15.13;5.63;;;;;;;13.02;100.00;101743.06;10392922;28;20045;-73
2023/10/09 02:00:56;;;;;;;15.18;5.85;;;;;;;13.04;100.00;101728.97;10398954;28;20044;-73
2023/10/09 02:05:59;;;;;;;14.20;6.13;;;;;;;13.07;100.00;101726.53;10396674;28;20106;-73
2023/10/09 02:11:02;;;;;;;17.23;7.60;;;;;;;13.05;100.00;101720.44;10398358;28;20088;-73
2023/10/09 02:16:15;;;;;;;16.33;6.40;;;;;;;13.06;100.00;101705.53;10395569;28;20398;-74
2023/10/09 02:21:16;;;;;;;21.38;10.07;;;;;;;13.06;100.00;101705.53;10396374;28;20072;-73
2023/10/09 02:26:23;;;;;;;20.33;8.90;;;;;;;13.04;100.00;101690.25;10396609;28;20398;-73
2023/10/09 02:31:26;;;;;;;24.75;9.18;;;;;;;13.00;100.00;101675.28;10399452;28;20079;-72
2023/10/09 02:36:28;;;;;;;26.02;10.15;;;;;;;12.95;100.00;101672.44;10396745;28;20046;-74
2023/10/09 02:41:32;;;;;;;21.27;8.98;;;;;;;12.96;100.00;101674.94;10397225;28;20041;-73
2023/10/09 02:46:34;;;;;;;24.05;9.77;;;;;;;12.96;100.00;101655.59;10374592;28;20082;-73
2023/10/09 02:51:41;;;;;;;25.88;10.40;;;;;;;12.92;100.00;101643.38;10394505;28;20041;-73
2023/10/09 02:56:47;;;;;;;25.65;11.43;;;;;;;12.88;100.00;101620.09;10396428;28;20041;-73
2023/10/09 03:01:48;;;;;;;23.27;10.13;;;;;;;12.89;100.00;101617.06;10393587;28;20110;-73
2023/10/09 03:06:51;;;;;;;30.73;12.13;;;;;;;12.63;100.00;101577.13;10377348;28;20367;-73
2023/10/09 03:11:54;;;;;;;29.98;13.00;;;;;;;12.90;100.00;101607.69;10391201;28;20375;-73
2023/10/09 03:16:59;;;;;;;31.05;12.38;;;;;;;12.92;100.00;101615.75;10394271;28;20059;-74
2023/10/09 03:22:00;;;;;;;29.23;11.95;;;;;;;12.93;100.00;101622.94;10379753;28;20087;-73
2023/10/09 03:27:00;;;;;;;33.25;13.00;;;;;;;12.95;100.00;101625.44;10394179;28;20048;-72
2023/10/09 03:32:01;;;;;;;28.33;12.75;;;;;;;12.95;100.00;101609.69;10395969;28;20053;-73
2023/10/09 03:37:04;;;;;;;29.10;12.68;;;;;;;12.86;100.00;101595.47;10388303;28;20524;-73
2023/10/09 03:42:05;;;;;;;28.25;12.45;;;;;;;12.97;100.00;101623.28;10395640;28;20033;-74
2023/10/09 03:47:09;;;;;;;30.33;13.90;;;;;;;12.97;100.00;101621.34;10393832;28;20034;-74
2023/10/09 03:52:11;;;;;;;35.53;15.38;;;;;;;12.97;100.00;101628.78;10394762;28;20038;-74
2023/10/09 03:57:19;;;;;;;35.22;15.18;;;;;;;12.97;100.00;101629.63;10393863;28;20088;-74
2023/10/09 04:02:22;;;;;;;35.85;16.40;;;;;;;12.99;100.00;101627.44;10394786;28;20045;-75
2023/10/09 04:07:22;;;;;;;39.28;18.55;;;;;;;13.01;100.00;101619.75;10374840;28;20042;-74
2023/10/09 04:12:25;;;;;;;44.08;18.42;;;;;;;13.06;100.00;101605.16;10395196;28;20041;-74
2023/10/09 04:17:34;;;;;;;46.72;18.77;;;;;;;13.08;100.00;101611.28;10392887;28;20078;-74
2023/10/09 04:23:34;;;;;;;45.58;18.05;;;;;;;13.07;100.00;101620.66;10404673;28;20075;-73
2023/10/09 04:33:54;;;;;;;50.28;19.48;;;;;;;13.19;100.00;101623.31;10400615;28;20034;-74
2023/10/09 04:38:55;;;;;;;54.70;21.60;;;;;;;13.22;100.00;101617.28;10381166;28;20037;-74
2023/10/09 04:44:18;;;;;;;65.13;25.35;;;;;;;13.30;100.00;101617.72;10399827;28;20109;-73
2023/10/09 04:49:28;;;;;;;62.17;22.48;;;;;;;13.36;100.00;101601.22;10400412;28;20041;-73
2023/10/09 04:54:39;;;;;;;60.85;26.27;;;;;;;13.43;100.00;101594.38;10399055;28;20046;-74
2023/10/09 04:59:47;;;;;;;74.55;25.02;;;;;;;13.19;100.00;101532.06;10401955;28;20047;-74
2023/10/09 05:04:51;;;;;;;61.35;25.08;;;;;;;13.53;100.00;101577.91;10390586;28;20064;-75
2023/10/09 05:10:09;;;;;;;78.28;26.23;;;;;;;13.59;100.00;101591.84;10388406;28;20038;-74
2023/10/09 05:15:13;;;;;;;67.75;26.35;;;;;;;13.65;100.00;101591.63;10402244;28;20045;-75
2023/10/09 05:26:26;;;;;;;80.53;28.38;;;;;;;13.79;100.00;101558.88;10387157;28;20073;-75
2023/10/09 05:30:55;;;;;;;76.03;27.95;;;;;;;13.84;100.00;101583.84;10382808;28;20414;-75
2023/10/09 05:36:47;;;;;;;78.78;28.42;;;;;;;13.89;100.00;101581.13;10395418;28;20073;-74
2023/10/09 05:41:45;;;;;;;73.85;27.65;;;;;;;13.95;100.00;101590.31;10392351;28;20041;-75
2023/10/09 05:47:29;;;;;;;79.15;28.35;;;;;;;14.04;100.00;101604.56;10393657;28;20042;-74
2023/10/09 05:52:32;;;;;;;77.90;27.98;;;;;;;14.10;100.00;101597.97;10396925;28;20041;-75
2023/10/09 05:58:59;;;;;;;80.10;30.85;;;;;;;14.16;100.00;101602.47;10398928;28;20042;-73
2023/10/09 06:08:24;;;;;;;81.47;29.05;;;;;;;14.25;100.00;101611.97;10384236;28;20038;-75
2023/10/09 06:18:53;;;;;;;181.77;78.70;;;;;;;14.39;100.00;101590.25;10398215;28;20038;-75
2023/10/09 06:29:15;;;;;;;136.02;59.35;;;;;;;14.40;100.00;101585.53;10380270;28;20519;-76
2023/10/09 06:34:15;;;;;;;120.65;49.00;;;;;;;14.52;100.00;101605.59;10396127;28;20029;-75
2023/10/09 06:44:53;;;;;;;71.97;26.88;;;;;;;14.63;100.00;101607.38;10398330;28;20359;-75
2023/10/09 06:55:19;;;;;;;52.92;20.75;;;;;;;14.71;100.00;101601.34;10397193;28;20149;-77
2023/10/09 07:11:21;;;;;;;49.83;19.35;;;;;;;14.88;100.00;101614.22;10381890;28;20048;-76
2023/10/09 07:16:28;;;;;;;47.42;17.30;;;;;;;14.90;100.00;101617.56;10393046;28;20041;-76
2023/10/09 07:21:28;;;;;;;;;;;;;;;14.96;100.00;101629.53;10393232;28;20045;-76
2023/10/09 07:26:43;;;;;;;34.55;13.73;;;;;;;15.00;100.00;101612.09;10382527;28;19921;-75
2023/10/09 07:31:47;;;;;;;35.10;15.73;;;;;;;15.04;100.00;101613.25;10369980;28;20049;-75
2023/10/09 07:36:49;;;;;;;34.80;14.63;;;;;;;15.07;100.00;101609.94;10383564;28;20043;-76
2023/10/09 07:41:56;;;;;;;35.13;13.27;;;;;;;15.11;100.00;101621.31;10394189;28;20474;-75
2023/10/09 07:47:18;;;;;;;;;;;;;;;15.18;100.00;101607.25;10392708;28;20071;-76
2023/10/09 07:52:18;;;;;;;31.98;13.52;;;;;;;15.23;100.00;101612.81;10397220;28;19921;-76
2023/10/09 07:57:25;;;;;;;28.20;12.77;;;;;;;15.20;100.00;101638.34;10403409;28;20124;-74
2023/10/09 08:02:31;;;;;;;24.48;11.40;;;;;;;15.27;100.00;101639.75;10400155;28;20061;-76
2023/10/09 08:07:35;;;;;;;31.35;11.40;;;;;;;15.33;100.00;101635.06;10395293;28;20485;-76
2023/10/09 08:17:39;;;;;;;27.45;12.05;;;;;;;15.37;100.00;101632.59;10403749;28;20044;-77
2023/10/09 08:22:43;;;;;;;31.80;12.50;;;;;;;15.50;100.00;101649.63;10401743;28;20049;-77
2023/10/09 08:27:54;;;;;;;30.30;10.90;;;;;;;15.49;100.00;101667.38;10404452;28;20505;-77
2023/10/09 08:33:07;;;;;;;30.77;10.95;;;;;;;15.49;100.00;101670.13;10401401;28;20041;-76
2023/10/09 08:38:08;;;;;;;18.48;9.25;;;;;;;15.43;100.00;101654.56;10387113;28;20041;-74
2023/10/09 08:43:14;;;;;;;24.13;10.23;;;;;;;15.49;100.00;101670.13;10399169;28;20486;-77
2023/10/09 08:48:18;;;;;;;;;;;;;;;15.52;100.00;101672.41;10401141;28;20044;-76
2023/10/09 08:53:18;;;;;;;23.52;9.10;;;;;;;15.52;100.00;101669.63;10403166;28;20432;-76
2023/10/09 08:58:26;;;;;;;29.65;10.65;;;;;;;15.61;100.00;101661.63;10399789;28;20092;-77
2023/10/09 09:03:27;;;;;;;26.20;10.18;;;;;;;15.65;100.00;101673.03;10401396;28;20048;-76
2023/10/09 09:08:36;;;;;;;20.88;9.13;;;;;;;15.63;100.00;101683.56;10381228;28;20049;-77
2023/10/09 09:13:36;;;;;;;28.55;10.50;;;;;;;15.57;100.00;101684.63;10384791;28;20046;-76
2023/10/09 09:18:57;;;;;;;25.58;11.13;;;;;;;15.58;100.00;101666.84;10401567;28;20076;-75
2023/10/09 09:24:01;;;;;;;29.08;10.30;;;;;;;15.70;100.00;101681.38;10399586;28;20128;-76
2023/10/09 09:29:03;;;;;;;26.67;10.57;;;;;;;15.70;100.00;101681.38;10399440;28;20038;-76
2023/10/09 09:34:13;;;;;;;27.90;10.52;;;;;;;15.78;100.00;101678.09;10400497;28;20037;-75
2023/10/09 09:39:19;;;;;;;27.23;10.18;;;;;;;15.76;100.00;101691.44;10401356;28;20045;-74
2023/10/09 09:44:21;;;;;;;24.52;10.23;;;;;;;15.84;100.00;101688.13;10376217;28;20049;-74
2023/10/09 09:49:22;;;;;;;21.23;9.30;;;;;;;15.88;100.00;101678.16;10384817;28;20850;-75
2023/10/09 09:54:24;;;;;;;21.92;10.15;;;;;;;15.99;100.00;101678.22;10378733;28;20041;-75
2023/10/09 09:59:28;;;;;;;15.70;9.60;;;;;;;16.02;100.00;101683.22;10379244;28;20056;-75
2023/10/09 10:04:29;;;;;;;20.55;7.97;;;;;;;16.04;100.00;101686.53;10388826;28;20406;-76
2023/10/09 10:09:41;;;;;;;21.05;8.27;;;;;;;16.07;100.00;101694.34;10367436;28;20498;-75
2023/10/09 10:14:59;;;;;;;19.45;8.30;;;;;;;16.14;100.00;101693.00;10373957;28;20030;-74
2023/10/09 10:25:32;;;;;;;17.38;8.75;;;;;;;16.15;100.00;101704.94;10376130;28;20041;-75
2023/10/09 10:30:34;;;;;;;19.08;7.97;;;;;;;16.06;100.00;101709.34;10377050;28;20058;-75
2023/10/09 10:36:09;;;;;;;16.90;7.82;;;;;;;16.00;100.00;101707.63;10378514;28;20109;-74
2023/10/09 10:41:31;;;;;;;15.98;7.35;;;;;;;16.02;100.00;101716.53;10359363;28;20046;-75
2023/10/09 10:51:37;;;;;;;13.90;6.50;;;;;;;16.10;100.00;101724.34;10376152;28;20081;-76
2023/10/09 10:56:38;;;;;;;15.63;6.13;;;;;;;16.13;100.00;101718.28;10377572;28;20048;-76
2023/10/09 11:01:58;;;;;;;18.52;7.43;;;;;;;16.26;100.00;101728.88;10380593;28;20045;-74
2023/10/09 11:07:06;;;;;;;12.95;6.00;;;;;;;16.39;100.00;101737.81;10363278;28;20034;-75
2023/10/09 11:12:21;;;;;;;23.90;6.57;;;;;;;16.43;100.00;101750.88;10371030;28;20108;-77
2023/10/09 11:17:25;;;;;;;17.80;6.68;;;;;;;16.35;100.00;101754.22;10381589;28;20065;-77
2023/10/09 11:22:29;;;;;;;16.45;5.80;;;;;;;16.37;100.00;101745.56;10379407;28;20050;-75
2023/10/09 11:27:32;;;;;;;11.70;5.47;;;;;;;16.38;100.00;101744.50;10379978;28;20042;-74
2023/10/09 11:32:35;;;;;;;12.43;4.80;;;;;;;16.37;100.00;101740.88;10377919;28;20038;-75
2023/10/09 11:37:42;;;;;;;10.45;4.63;;;;;;;16.57;100.00;101740.09;10378041;28;20045;-74
2023/10/09 11:42:49;;;;;;;8.20;3.65;;;;;;;16.86;100.00;101754.38;10360422;28;20432;-76
2023/10/09 11:48:28;;;;;;;6.72;3.22;;;;;;;16.91;100.00;101750.78;10383005;28;20041;-75
2023/10/09 11:53:19;;;;;;;12.25;3.25;;;;;;;16.63;100.00;101725.09;10377780;28;20037;-75
2023/10/09 11:58:23;;;;;;;6.50;2.83;;;;;;;16.92;100.00;101746.88;10376378;28;20052;-75
2023/10/09 12:03:30;;;;;;;5.25;2.28;;;;;;;16.99;100.00;101741.03;10378747;28;20061;-78
2023/10/09 12:08:34;;;;;;;6.75;1.98;;;;;;;17.06;100.00;101741.63;10381313;28;20038;-77
2023/10/09 12:13:34;;;;;;;6.43;2.45;;;;;;;17.11;100.00;101739.66;10360469;28;20071;-77
2023/10/09 12:18:36;;;;;;;7.38;2.28;;;;;;;17.12;100.00;101734.94;10377828;28;20046;-76
2023/10/09 12:23:36;;;;;;;5.90;1.95;;;;;;;17.15;100.00;101737.97;10364398;28;20106;-76
2023/10/09 12:28:37;;;;;;;5.90;1.95;;;;;;;17.13;100.00;101734.63;10397706;28;20071;-75
2023/10/09 12:33:39;;;;;;;4.38;1.90;;;;;;;16.93;100.00;101729.09;10398186;28;20042;-78
2023/10/09 12:38:46;;;;;;;4.68;2.30;;;;;;;16.82;100.00;101730.16;10402333;28;20046;-75
2023/10/09 12:43:47;;;;;;;8.75;2.45;;;;;;;16.84;100.00;101726.00;10407787;28;20052;-78
2023/10/09 12:48:47;;;;;;;8.80;2.33;;;;;;;16.85;100.00;101732.41;10404369;28;20122;-80
2023/10/09 12:53:56;;;;;;;4.57;1.90;;;;;;;16.89;100.00;101730.75;10407342;28;20030;-78
2023/10/09 12:58:57;;;;;;;7.80;2.85;;;;;;;16.78;100.00;101742.91;10406584;28;20041;-74
2023/10/09 13:03:59;;;;;;;8.43;2.90;;;;;;;16.63;100.00;101727.03;10407175;28;20092;-75
2023/10/09 13:09:06;;;;;;;6.35;3.15;;;;;;;16.58;100.00;101740.91;10404227;28;20431;-76
2023/10/09 13:14:21;;;;;;;;;;;;;;;16.44;100.00;101743.41;10406182;28;20034;-76
2023/10/09 13:19:24;;;;;;;13.10;4.22;;;;;;;16.28;100.00;101748.06;10405862;28;20008;-77
2023/10/09 13:24:29;;;;;;;9.40;3.70;;;;;;;16.22;100.00;101752.75;10405927;28;20053;-77
2023/10/09 13:29:33;;;;;;;15.93;3.97;;;;;;;16.18;100.00;101743.28;10405882;28;20042;-77
2023/10/09 13:34:34;;;;;;;13.65;3.45;;;;;;;16.17;100.00;101744.41;10398903;28;20046;-80
2023/10/09 13:39:39;;;;;;;14.30;4.25;;;;;;;16.17;100.00;101749.13;10405233;28;20064;-77
2023/10/09 13:44:42;;;;;;;10.20;4.00;;;;;;;16.13;100.00;101754.38;10402487;28;20042;-80
2023/10/09 13:49:44;;;;;;;9.07;3.55;;;;;;;16.05;100.00;101757.66;10400684;28;20053;-76
2023/10/09 13:54:49;;;;;;;11.88;4.10;;;;;;;16.00;100.00;101785.41;10404695;28;20077;-78
2023/10/09 13:59:49;;;;;;;10.93;3.25;;;;;;;16.02;100.00;101777.63;10399982;28;20037;-80
2023/10/09 14:04:51;;;;;;;12.00;3.85;;;;;;;16.01;100.00;101770.44;10403018;28;20045;-79
2023/10/09 14:09:55;;;;;;;10.90;2.97;;;;;;;16.02;100.00;101774.84;10403952;28;20131;-77
2023/10/09 14:14:55;;;;;;;20.83;4.72;;;;;;;16.05;100.00;101779.91;10405636;28;20504;-80
2023/10/09 14:20:25;;;;;;;8.82;3.53;;;;;;;16.06;100.00;101776.00;10400616;28;20297;-79
2023/10/09 14:25:20;;;;;;;18.20;4.45;;;;;;;16.09;100.00;101772.69;10397397;28;20034;-79
2023/10/09 14:30:30;;;;;;;7.68;3.10;;;;;;;16.04;100.00;101780.97;10382533;28;20097;-80
2023/10/09 14:35:32;;;;;;;10.23;2.80;;;;;;;15.91;100.00;101777.56;10401527;28;20037;-76
2023/10/09 14:40:33;;;;;;;8.85;2.60;;;;;;;15.91;100.00;101777.56;10385197;28;20080;-79
2023/10/09 14:45:36;;;;;;;7.15;2.17;;;;;;;15.97;100.00;101780.41;10388727;28;20038;-82
2023/10/09 14:50:38;;;;;;;5.15;3.08;;;;;;;16.01;100.00;101781.53;10388556;28;20107;-80
2023/10/09 14:55:39;;;;;;;10.35;3.03;;;;;;;16.27;100.00;101786.13;10392078;28;20222;-81
2023/10/09 15:00:46;;;;;;;6.05;2.70;;;;;;;16.37;100.00;101781.72;10411662;28;20049;-80
2023/10/09 15:05:46;;;;;;;8.70;2.25;;;;;;;16.50;100.00;101784.81;10399244;28;20056;-77
2023/10/09 15:10:47;;;;;;;7.00;2.90;;;;;;;16.50;100.00;101787.59;10387597;28;20060;-76
2023/10/09 15:15:50;;;;;;;9.80;3.17;;;;;;;16.48;100.00;101797.34;10351204;28;20049;-77
2023/10/09 15:20:51;;;;;;;11.45;2.22;;;;;;;16.46;100.00;101796.78;10336798;28;20053;-77
2023/10/09 15:25:52;;;;;;;8.68;1.77;;;;;;;16.35;100.00;101798.69;10353604;28;20049;-77
2023/10/09 15:30:52;;;;;;;9.15;2.20;;;;;;;16.21;100.00;101801.09;10351190;28;20064;-78
2023/10/09 15:35:53;;;;;;;13.00;2.35;;;;;;;16.13;100.00;101796.88;10353297;28;20576;-77
2023/10/09 15:40:53;;;;;;;8.80;2.40;;;;;;;16.12;100.00;101794.38;10348909;28;20425;-85
2023/10/09 15:45:54;;;;;;;4.70;1.92;;;;;;;16.17;100.00;101802.75;10350239;28;20046;-76
2023/10/09 15:50:55;;;;;;;5.57;1.38;;;;;;;16.14;100.00;101798.56;10343500;28;20065;-75
2023/10/09 15:55:57;;;;;;;3.65;1.08;;;;;;;16.13;100.00;101793.28;10348095;28;20124;-76
2023/10/09 16:00:58;;;;;;;4.78;1.55;;;;;;;16.09;100.00;101814.34;10348749;28;20046;-75
2023/10/09 16:05:59;;;;;;;3.65;1.10;;;;;;;15.97;100.00;101816.50;10351372;28;20044;-76
2023/10/09 16:11:00;;;;;;;9.00;1.45;;;;;;;15.91;100.00;101823.97;10350163;28;20045;-76
2023/10/09 16:16:01;;;;;;;4.90;1.60;;;;;;;15.83;100.00;101825.28;10376622;28;20033;-74
2023/10/09 16:21:04;;;;;;;5.57;1.33;;;;;;;15.83;100.00;101832.78;10405778;28;20045;-75
2023/10/09 16:26:06;;;;;;;3.75;0.90;;;;;;;15.78;100.00;101829.97;10402350;28;20045;-75
2023/10/09 16:31:13;;;;;;;6.15;1.48;;;;;;;15.66;100.00;101830.97;10404724;28;20041;-73
2023/10/09 16:36:14;;;;;;;6.25;1.52;;;;;;;15.65;100.00;101845.13;10402902;28;20041;-75
2023/10/09 16:41:15;;;;;;;2.60;1.08;;;;;;;15.58;100.00;101841.72;10403090;28;20080;-74
2023/10/09 16:46:16;;;;;;;5.20;1.40;;;;;;;15.54;100.00;101866.38;10403259;28;20056;-75
2023/10/09 16:51:23;;;;;;;6.60;1.42;;;;;;;15.50;100.00;101855.00;10402893;28;20041;-75
2023/10/09 16:56:23;;;;;;;2.83;0.93;;;;;;;15.42;100.00;101857.38;10399251;28;20054;-77
2023/10/09 17:01:27;;;;;;;4.70;0.93;;;;;;;15.40;100.00;101876.22;10403527;28;20061;-76
2023/10/09 17:06:28;;;;;;;6.47;0.93;;;;;;;15.38;100.00;101870.97;10402842;28;20041;-77
2023/10/09 17:11:29;;;;;;;4.32;0.95;;;;;;;15.38;100.00;101889.53;10402972;28;20038;-76
2023/10/09 17:16:29;;;;;;;6.45;1.65;;;;;;;15.37;100.00;101899.78;10403347;28;20041;-77
2023/10/09 17:21:35;;;;;;;7.07;1.23;;;;;;;15.35;100.00;101907.53;10400810;28;20048;-76
2023/10/09 17:26:39;;;;;;;8.90;1.27;;;;;;;15.29;100.00;101900.25;10399574;28;20030;-76
2023/10/09 17:31:40;;;;;;;7.47;1.95;;;;;;;15.24;100.00;101905.78;10402413;28;20034;-77
2023/10/09 17:36:40;;;;;;;6.53;2.17;;;;;;;15.14;100.00;101901.78;10399017;28;20034;-77
2023/10/09 17:41:41;;;;;;;6.72;1.60;;;;;;;14.96;100.00;101882.69;10400319;28;20042;-77
2023/10/09 17:46:41;;;;;;;10.10;1.63;;;;;;;15.07;100.00;101908.63;10404794;28;20034;-77
2023/10/09 17:51:42;;;;;;;15.57;2.70;;;;;;;15.03;100.00;101902.75;10400575;28;20045;-77
2023/10/09 17:56:44;;;;;;;5.57;1.63;;;;;;;15.02;100.00;101903.84;10399766;28;20057;-80
2023/10/09 18:01:44;;;;;;;7.25;2.35;;;;;;;14.99;100.00;101914.63;10398823;28;20116;-79
2023/10/09 18:06:47;;;;;;;5.55;1.83;;;;;;;14.86;100.00;101918.63;10400444;28;20526;-80
2023/10/09 18:11:48;;;;;;;6.15;1.17;;;;;;;14.82;100.00;101910.00;10397396;28;20100;-80
2023/10/09 18:16:49;;;;;;;3.90;1.00;;;;;;;14.80;100.00;101912.19;10401004;28;20061;-80
2023/10/09 18:21:50;;;;;;;1.95;0.88;;;;;;;14.73;100.00;101914.31;10399276;28;20033;-80
2023/10/09 18:26:51;;;;;;;5.70;1.45;;;;;;;14.67;100.00;101918.09;10396022;28;20044;-79
2023/10/09 18:31:51;;;;;;;6.60;1.13;;;;;;;14.67;100.00;101912.56;10399579;28;20045;-80
2023/10/09 18:36:52;;;;;;;3.60;1.10;;;;;;;14.70;100.00;101918.44;10396656;28;20042;-80
2023/10/09 18:41:53;;;;;;;11.70;2.22;;;;;;;14.72;100.00;101920.94;10403176;28;20064;-74
2023/10/09 18:46:56;;;;;;;7.00;1.10;;;;;;;14.72;100.00;101927.31;10397552;28;20049;-79
2023/10/09 18:51:56;;;;;;;9.43;0.90;;;;;;;14.67;100.00;101927.25;10388307;28;20038;-79
2023/10/09 18:56:57;;;;;;;11.85;2.65;;;;;;;14.65;100.00;101920.28;10391329;28;20133;-80
2023/10/09 19:01:57;;;;;;;8.43;1.60;;;;;;;14.60;100.00;101918.28;10389597;28;20042;-80
2023/10/09 19:06:58;;;;;;;10.73;1.40;;;;;;;14.54;100.00;101922.06;10394447;28;20058;-80
2023/10/09 19:11:58;;;;;;;9.45;1.55;;;;;;;14.41;100.00;101909.41;10394534;28;20044;-78
2023/10/09 19:16:59;;;;;;;5.05;0.98;;;;;;;14.50;100.00;101932.78;10397881;28;20033;-80
2023/10/09 19:22:00;;;;;;;6.35;1.00;;;;;;;14.47;100.00;101935.22;10394480;28;20042;-80
2023/10/09 19:27:00;;;;;;;5.25;1.20;;;;;;;14.45;100.00;101934.66;10393878;28;20038;-78
2023/10/09 19:32:02;;;;;;;8.70;1.35;;;;;;;14.21;100.00;101904.38;10400395;28;20037;-79
2023/10/09 19:37:07;;;;;;;4.65;0.95;;;;;;;14.36;100.00;101936.19;10378188;28;20098;-79
2023/10/09 19:42:07;;;;;;;4.25;1.00;;;;;;;14.37;100.00;101937.88;10396569;28;20097;-79
2023/10/09 19:47:09;;;;;;;6.40;1.30;;;;;;;14.38;100.00;101934.84;10390911;28;20037;-79
2023/10/09 19:52:10;;;;;;;6.88;1.50;;;;;;;14.33;100.00;101935.59;10355710;28;1102654;-79
2023/10/09 19:57:10;;;;;;;10.02;1.27;;;;;;;14.33;100.00;101946.69;10396095;28;20034;-79
2023/10/09 20:02:13;;;;;;;3.95;1.50;;;;;;;14.33;100.00;101954.16;10393846;28;20072;-80
2023/10/09 20:07:14;;;;;;;4.78;1.73;;;;;;;14.31;100.00;101954.41;10391542;28;20033;-80
2023/10/09 20:12:15;;;;;;;6.22;1.27;;;;;;;14.29;100.00;101950.22;10378138;28;20064;-81
2023/10/09 20:17:15;;;;;;;3.30;1.25;;;;;;;14.29;100.00;101959.34;10378569;28;20045;-80
2023/10/09 20:22:17;;;;;;;7.28;1.73;;;;;;;14.31;100.00;101959.13;10384359;28;20042;-79
2023/10/09 20:27:17;;;;;;;11.68;1.63;;;;;;;14.33;100.00;101957.75;10390469;28;20049;-80
2023/10/09 20:32:19;;;;;;;6.38;2.05;;;;;;;14.36;100.00;101942.56;10398172;28;20053;-73
2023/10/09 20:37:20;;;;;;;4.07;1.23;;;;;;;14.28;100.00;101943.84;10394089;28;20034;-80
2023/10/09 20:42:21;;;;;;;3.70;1.40;;;;;;;14.28;100.00;101945.75;10392082;28;20298;-81
2023/10/09 20:47:25;;;;;;;5.85;1.88;;;;;;;14.30;100.00;101961.06;10394618;28;20042;-81
2023/10/09 20:52:27;;;;;;;9.85;2.45;;;;;;;14.27;100.00;101958.78;10394516;28;20133;-80
2023/10/09 20:57:28;;;;;;;10.70;2.72;;;;;;;14.23;100.00;101965.91;10394859;28;20053;-80
2023/10/09 21:02:28;;;;;;;5.63;1.60;;;;;;;14.22;100.00;101966.16;10393183;28;20057;-80
2023/10/09 21:07:29;;;;;;;7.13;2.20;;;;;;;14.23;100.00;101968.69;10407526;28;20037;-80
2023/10/09 21:12:30;;;;;;;10.15;1.55;;;;;;;14.25;100.00;101960.13;10401082;28;20049;-80
2023/10/09 21:17:30;;;;;;;8.20;2.08;;;;;;;14.23;100.00;101952.06;10401555;28;20040;-80
2023/10/09 21:22:31;;;;;;;7.75;3.45;;;;;;;14.14;100.00;101948.06;10403382;28;20041;-79
2023/10/09 21:27:33;;;;;;;5.43;2.00;;;;;;;14.06;100.00;101949.31;10398361;28;20053;-80
2023/10/09 21:32:40;;;;;;;5.30;1.75;;;;;;;14.09;100.00;101967.34;10399771;28;20065;-80
2023/10/09 21:37:40;;;;;;;6.97;2.15;;;;;;;14.07;100.00;101958.44;10399035;28;20137;-78
2023/10/09 21:42:41;;;;;;;6.88;2.50;;;;;;;14.10;100.00;101949.66;10393317;28;20605;-80
2023/10/09 21:47:42;;;;;;;9.90;2.53;;;;;;;14.11;100.00;101960.44;10395166;28;20305;-79
2023/10/09 21:52:42;;;;;;;8.30;2.45;;;;;;;14.12;100.00;101961.31;10395342;28;20037;-78
2023/10/09 21:57:46;;;;;;;4.43;1.67;;;;;;;14.15;100.00;101955.25;10395011;28;20034;-79
2023/10/09 22:02:49;;;;;;;12.68;2.28;;;;;;;14.19;100.00;101947.28;10392123;28;20124;-79
2023/10/09 22:07:51;;;;;;;4.63;1.42;;;;;;;14.18;100.00;101949.22;10400016;28;20041;-77
2023/10/09 22:12:53;;;;;;;5.05;1.80;;;;;;;14.16;100.00;101950.53;10393049;28;20041;-79
2023/10/09 22:17:54;;;;;;;5.95;2.83;;;;;;;14.14;100.00;101953.59;10398524;28;20041;-79
2023/10/09 22:22:57;;;;;;;8.70;2.10;;;;;;;14.18;100.00;101960.31;10397290;28;20053;-79
2023/10/09 22:28:03;;;;;;;4.82;2.20;;;;;;;14.22;100.00;101966.16;10397568;28;20109;-79
2023/10/09 22:33:04;;;;;;;11.85;3.88;;;;;;;14.18;100.00;101943.69;10395704;28;20049;-79
2023/10/09 22:38:11;;;;;;;15.88;4.88;;;;;;;14.27;100.00;101953.22;10397438;28;20060;-79
2023/10/09 22:43:14;;;;;;;10.93;3.50;;;;;;;14.26;100.00;101943.25;10391717;28;20046;-79
2023/10/09 22:48:15;;;;;;;11.15;2.85;;;;;;;14.25;100.00;101954.59;10398465;28;20521;-79
2023/10/09 22:53:21;;;;;;;7.70;3.20;;;;;;;14.23;100.00;101946.53;10359296;28;20045;-78
2023/10/09 22:58:26;;;;;;;7.97;2.90;;;;;;;14.26;100.00;101957.09;10396980;28;20041;-78
2023/10/09 23:03:27;;;;;;;9.57;3.13;;;;;;;14.23;100.00;101952.06;10391700;28;20046;-79
2023/10/09 23:08:30;;;;;;;7.70;3.83;;;;;;;14.27;100.00;101955.16;10380151;28;20056;-79
2023/10/09 23:13:34;;;;;;;13.60;4.68;;;;;;;14.23;100.00;101967.84;10386079;28;20046;-79
2023/10/09 23:18:43;;;;;;;10.48;4.63;;;;;;;14.17;100.00;101928.16;10391679;28;20065;-79
2023/10/09 23:23:44;;;;;;;17.15;5.20;;;;;;;14.27;100.00;101944.91;10384797;28;20085;-79
2023/10/09 23:28:50;;;;;;;11.32;4.75;;;;;;;14.27;100.00;101942.16;10399612;28;20037;-79
2023/10/09 23:33:55;;;;;;;17.83;6.07;;;;;;;14.23;100.00;101954.00;10384941;28;20048;-78
2023/10/09 23:44:11;;;;;;;16.58;5.68;;;;;;;14.27;100.00;101941.31;10380104;28;20057;-78
2023/10/09 23:49:18;;;;;;;13.30;5.38;;;;;;;14.30;100.00;101946.34;10392517;28;20045;-79
2023/10/09 23:54:23;;;;;;;15.75;5.55;;;;;;;14.32;100.00;101953.34;10394554;28;20038;-78
2023/10/09 23:59:38;;;;;;;15.07;5.70;;;;;;;14.32;100.00;101950.56;10391895;28;20046;-79
